sensor_id;sensor_type;location;lat;lon;timestamp;pressure;altitude;pressure_sealevel;temperature;humidity
9141;BME280;46330;50.822;7.126;2022-08-03T00:01:42;100912.34;;;21.22;68.21
9141;BME280;46330;50.822;7.126;2022-08-03T00:04:11;100913.41;;;21.19;68.21
9141;BME280;46330;50.822;7.126;2022-08-03T00:06:39;100912.78;;;21.14;68.46
9141;BME280;46330;50.822;7.126;2022-08-03T00:09:08;100915.25;;;21.17;68.60
9141;BME280;46330;50.822;7.126;2022-08-03T00:11:37;100911.00;;;21.15;68.57
9141;BME280;46330;50.822;7.126;2022-08-03T00:14:05;100909.63;;;21.08;68.77
9141;BME280;46330;50.822;7.126;2022-08-03T00:16:34;100909.69;;;21.06;69.29
9141;BME280;46330;50.822;7.126;2022-08-03T00:19:02;100910.91;;;21.01;69.29
9141;BME280;46330;50.822;7.126;2022-08-03T00:21:30;100897.63;;;21.01;69.44
9141;BME280;46330;50.822;7.126;2022-08-03T00:23:58;100910.66;;;20.89;69.98
9141;BME280;46330;50.822;7.126;2022-08-03T00:26:27;100898.50;;;20.85;69.82
9141;BME280;46330;50.822;7.126;2022-08-03T00:28:57;100902.84;;;20.86;69.65
9141;BME280;46330;50.822;7.126;2022-08-03T00:31:24;100894.72;;;20.74;70.24
9141;BME280;46330;50.822;7.126;2022-08-03T00:34:12;100898.00;;;20.79;70.29
9141;BME280;46330;50.822;7.126;2022-08-03T00:36:41;100897.84;;;20.66;70.69
9141;BME280;46330;50.822;7.126;2022-08-03T00:39:08;100888.59;;;20.58;71.23
9141;BME280;46330;50.822;7.126;2022-08-03T00:41:38;100891.25;;;20.58;70.95
9141;BME280;46330;50.822;7.126;2022-08-03T00:44:06;100889.25;;;20.61;70.85
9141;BME280;46330;50.822;7.126;2022-08-03T00:46:33;100892.78;;;20.62;70.70
9141;BME280;46330;50.822;7.126;2022-08-03T00:49:01;100888.59;;;20.58;70.56
9141;BME280;46330;50.822;7.126;2022-08-03T00:51:30;100897.22;;;20.46;71.20
9141;BME280;46330;50.822;7.126;2022-08-03T00:53:58;100890.41;;;20.42;71.49
9141;BME280;46330;50.822;7.126;2022-08-03T00:56:27;100889.09;;;20.33;72.02
9141;BME280;46330;50.822;7.126;2022-08-03T00:58:56;100894.44;;;20.33;72.07
9141;BME280;46330;50.822;7.126;2022-08-03T01:01:25;100892.53;;;20.35;71.67
9141;BME280;46330;50.822;7.126;2022-08-03T01:03:58;100884.91;;;20.29;71.57
9141;BME280;46330;50.822;7.126;2022-08-03T01:06:32;100884.03;;;20.28;71.80
9141;BME280;46330;50.822;7.126;2022-08-03T01:09:08;100890.06;;;20.15;72.62
9141;BME280;46330;50.822;7.126;2022-08-03T01:11:43;100890.34;;;20.10;72.58
9141;BME280;46330;50.822;7.126;2022-08-03T01:14:33;100887.50;;;20.13;72.23
9141;BME280;46330;50.822;7.126;2022-08-03T01:17:10;100889.31;;;20.13;71.95
9141;BME280;46330;50.822;7.126;2022-08-03T01:19:44;100876.78;;;20.15;72.23
9141;BME280;46330;50.822;7.126;2022-08-03T01:25:17;100888.06;;;20.03;72.44
9141;BME280;46330;50.822;7.126;2022-08-03T01:27:58;100890.53;;;19.90;72.80
9141;BME280;46330;50.822;7.126;2022-08-03T01:30:31;100887.63;;;19.79;73.49
9141;BME280;46330;50.822;7.126;2022-08-03T01:33:02;100896.19;;;19.84;72.98
9141;BME280;46330;50.822;7.126;2022-08-03T01:35:33;100897.25;;;19.64;74.42
9141;BME280;46330;50.822;7.126;2022-08-03T01:38:09;100892.28;;;19.74;73.90
9141;BME280;46330;50.822;7.126;2022-08-03T01:40:39;100892.00;;;19.63;74.12
9141;BME280;46330;50.822;7.126;2022-08-03T01:43:09;100892.78;;;19.65;74.39
9141;BME280;46330;50.822;7.126;2022-08-03T01:45:42;100880.53;;;19.62;73.96
9141;BME280;46330;50.822;7.126;2022-08-03T01:48:11;100892.38;;;19.72;73.72
9141;BME280;46330;50.822;7.126;2022-08-03T01:50:44;100883.81;;;19.67;73.64
9141;BME280;46330;50.822;7.126;2022-08-03T01:53:14;100883.72;;;19.69;73.98
9141;BME280;46330;50.822;7.126;2022-08-03T01:55:45;100879.50;;;19.65;73.87
9141;BME280;46330;50.822;7.126;2022-08-03T01:58:15;100882.16;;;19.65;73.51
9141;BME280;46330;50.822;7.126;2022-08-03T02:00:48;100879.44;;;19.66;73.57
9141;BME280;46330;50.822;7.126;2022-08-03T02:03:17;100880.53;;;19.62;73.28
9141;BME280;46330;50.822;7.126;2022-08-03T02:05:47;100877.50;;;19.53;73.99
9141;BME280;46330;50.822;7.126;2022-08-03T02:08:36;100886.47;;;19.50;73.84
9141;BME280;46330;50.822;7.126;2022-08-03T02:11:04;100889.13;;;19.50;73.49
9141;BME280;46330;50.822;7.126;2022-08-03T02:13:33;100883.66;;;19.53;73.89
9141;BME280;46330;50.822;7.126;2022-08-03T02:16:04;100877.28;;;19.57;73.45
9141;BME280;46330;50.822;7.126;2022-08-03T02:18:32;100875.81;;;19.52;73.17
9141;BME280;46330;50.822;7.126;2022-08-03T02:21:01;100887.34;;;19.51;73.22
9141;BME280;46330;50.822;7.126;2022-08-03T02:23:37;100883.38;;;19.42;73.02
9141;BME280;46330;50.822;7.126;2022-08-03T02:26:10;100880.84;;;19.39;73.45
9141;BME280;46330;50.822;7.126;2022-08-03T02:28:40;100880.78;;;19.41;73.25
9141;BME280;46330;50.822;7.126;2022-08-03T02:31:14;100880.31;;;19.32;73.42
9141;BME280;46330;50.822;7.126;2022-08-03T02:33:46;100878.84;;;19.27;73.56
9141;BME280;46330;50.822;7.126;2022-08-03T02:36:19;100876.19;;;19.27;73.78
9141;BME280;46330;50.822;7.126;2022-08-03T02:38:50;100876.56;;;19.19;74.55
9141;BME280;46330;50.822;7.126;2022-08-03T02:41:23;100873.84;;;19.21;74.47
9141;BME280;46330;50.822;7.126;2022-08-03T02:43:55;100870.56;;;19.16;74.64
9141;BME280;46330;50.822;7.126;2022-08-03T02:46:36;100866.75;;;19.04;75.14
9141;BME280;46330;50.822;7.126;2022-08-03T02:49:05;100864.94;;;19.05;75.25
9141;BME280;46330;50.822;7.126;2022-08-03T02:51:55;100865.25;;;18.99;75.46
9141;BME280;46330;50.822;7.126;2022-08-03T02:54:25;100861.75;;;18.98;75.84
9141;BME280;46330;50.822;7.126;2022-08-03T02:56:56;100864.47;;;18.97;75.86
9141;BME280;46330;50.822;7.126;2022-08-03T02:59:25;100856.25;;;18.84;76.19
9141;BME280;46330;50.822;7.126;2022-08-03T03:01:59;100856.97;;;18.88;76.10
9141;BME280;46330;50.822;7.126;2022-08-03T03:04:29;100858.91;;;18.84;76.15
9141;BME280;46330;50.822;7.126;2022-08-03T03:06:59;100860.94;;;18.79;76.25
9141;BME280;46330;50.822;7.126;2022-08-03T03:09:31;100869.44;;;18.86;76.33
9141;BME280;46330;50.822;7.126;2022-08-03T03:12:09;100864.38;;;18.81;76.37
9141;BME280;46330;50.822;7.126;2022-08-03T03:14:38;100863.91;;;18.73;76.59
9141;BME280;46330;50.822;7.126;2022-08-03T03:17:08;100867.16;;;18.61;77.47
9141;BME280;46330;50.822;7.126;2022-08-03T03:19:38;100869.28;;;18.53;78.18
9141;BME280;46330;50.822;7.126;2022-08-03T03:22:07;100871.72;;;18.57;77.78
9141;BME280;46330;50.822;7.126;2022-08-03T03:24:36;100871.09;;;18.52;78.09
9141;BME280;46330;50.822;7.126;2022-08-03T03:27:05;100877.75;;;18.42;78.73
9141;BME280;46330;50.822;7.126;2022-08-03T03:29:33;100870.72;;;18.41;78.75
9141;BME280;46330;50.822;7.126;2022-08-03T03:32:05;100873.38;;;18.41;79.16
9141;BME280;46330;50.822;7.126;2022-08-03T03:34:36;100867.34;;;18.38;79.08
9141;BME280;46330;50.822;7.126;2022-08-03T03:37:04;100869.44;;;18.31;79.35
9141;BME280;46330;50.822;7.126;2022-08-03T03:39:32;100864.94;;;18.33;79.34
9141;BME280;46330;50.822;7.126;2022-08-03T03:42:02;100869.22;;;18.36;79.12
9141;BME280;46330;50.822;7.126;2022-08-03T03:44:30;100871.16;;;18.32;79.15
9141;BME280;46330;50.822;7.126;2022-08-03T03:46:58;100866.88;;;18.30;78.98
9141;BME280;46330;50.822;7.126;2022-08-03T03:49:26;100864.13;;;18.31;78.89
9141;BME280;46330;50.822;7.126;2022-08-03T03:51:55;100863.84;;;18.18;79.14
9141;BME280;46330;50.822;7.126;2022-08-03T03:54:23;100869.38;;;18.14;79.10
9141;BME280;46330;50.822;7.126;2022-08-03T03:56:55;100866.88;;;18.11;79.23
9141;BME280;46330;50.822;7.126;2022-08-03T03:59:22;100870.25;;;18.14;78.89
9141;BME280;46330;50.822;7.126;2022-08-03T04:01:50;100870.97;;;18.18;78.84
9141;BME280;46330;50.822;7.126;2022-08-03T04:04:24;100870.38;;;18.11;79.30
9141;BME280;46330;50.822;7.126;2022-08-03T04:07:22;100865.44;;;18.04;79.17
9141;BME280;46330;50.822;7.126;2022-08-03T04:10:12;100874.03;;;18.09;79.23
9141;BME280;46330;50.822;7.126;2022-08-03T04:12:58;100868.84;;;18.06;79.13
9141;BME280;46330;50.822;7.126;2022-08-03T04:15:27;100867.94;;;18.07;78.86
9141;BME280;46330;50.822;7.126;2022-08-03T04:17:56;100868.59;;;18.12;78.35
9141;BME280;46330;50.822;7.126;2022-08-03T04:20:27;100863.03;;;18.18;78.11
9141;BME280;46330;50.822;7.126;2022-08-03T04:22:59;100869.28;;;18.15;78.05
9141;BME280;46330;50.822;7.126;2022-08-03T04:25:39;100869.00;;;18.21;77.93
9141;BME280;46330;50.822;7.126;2022-08-03T04:28:08;100868.06;;;18.22;77.54
9141;BME280;46330;50.822;7.126;2022-08-03T04:30:58;100872.59;;;18.39;76.91
9141;BME280;46330;50.822;7.126;2022-08-03T04:33:28;100883.09;;;18.41;76.50
9141;BME280;46330;50.822;7.126;2022-08-03T04:35:59;100887.00;;;18.34;76.38
9141;BME280;46330;50.822;7.126;2022-08-03T04:38:33;100886.69;;;18.40;76.51
9141;BME280;46330;50.822;7.126;2022-08-03T04:41:03;100890.97;;;18.42;75.83
9141;BME280;46330;50.822;7.126;2022-08-03T04:43:33;100886.06;;;18.53;75.63
9141;BME280;46330;50.822;7.126;2022-08-03T04:46:01;100892.38;;;18.51;75.30
9141;BME280;46330;50.822;7.126;2022-08-03T04:48:30;100888.25;;;18.62;74.69
9141;BME280;46330;50.822;7.126;2022-08-03T04:50:58;100890.84;;;18.64;74.57
9141;BME280;46330;50.822;7.126;2022-08-03T04:53:31;100894.84;;;18.72;74.10
9141;BME280;46330;50.822;7.126;2022-08-03T04:56:03;100893.50;;;18.81;73.81
9141;BME280;46330;50.822;7.126;2022-08-03T04:58:32;100892.44;;;18.85;73.62
9141;BME280;46330;50.822;7.126;2022-08-03T05:01:00;100896.97;;;19.00;73.00
9141;BME280;46330;50.822;7.126;2022-08-03T05:03:28;100897.53;;;19.07;72.46
9141;BME280;46330;50.822;7.126;2022-08-03T05:05:58;100900.66;;;19.15;71.81
9141;BME280;46330;50.822;7.126;2022-08-03T05:08:38;100893.50;;;19.17;71.45
9141;BME280;46330;50.822;7.126;2022-08-03T05:11:13;100896.59;;;19.25;71.54
9141;BME280;46330;50.822;7.126;2022-08-03T05:13:41;100887.63;;;19.27;70.73
9141;BME280;46330;50.822;7.126;2022-08-03T05:16:09;100898.72;;;19.36;70.71
9141;BME280;46330;50.822;7.126;2022-08-03T05:18:37;100901.06;;;19.59;69.50
9141;BME280;46330;50.822;7.126;2022-08-03T05:21:05;100890.38;;;19.60;70.01
9141;BME280;46330;50.822;7.126;2022-08-03T05:23:33;100897.47;;;19.60;69.70
9141;BME280;46330;50.822;7.126;2022-08-03T05:26:02;100904.13;;;19.84;68.98
9141;BME280;46330;50.822;7.126;2022-08-03T05:28:30;100896.41;;;20.12;68.21
9141;BME280;46330;50.822;7.126;2022-08-03T05:30:58;100894.94;;;20.07;68.06
9141;BME280;46330;50.822;7.126;2022-08-03T05:33:26;100898.19;;;20.29;66.97
9141;BME280;46330;50.822;7.126;2022-08-03T05:35:54;100893.28;;;20.37;66.91
9141;BME280;46330;50.822;7.126;2022-08-03T05:38:30;100898.53;;;20.54;66.15
9141;BME280;46330;50.822;7.126;2022-08-03T05:41:02;100895.59;;;20.59;65.93
9141;BME280;46330;50.822;7.126;2022-08-03T05:43:49;100901.03;;;21.18;63.80
9141;BME280;46330;50.822;7.126;2022-08-03T05:46:17;100897.09;;;21.39;62.79
9141;BME280;46330;50.822;7.126;2022-08-03T05:48:46;100893.72;;;21.66;61.83
9141;BME280;46330;50.822;7.126;2022-08-03T05:51:14;100899.72;;;21.69;61.84
9141;BME280;46330;50.822;7.126;2022-08-03T05:53:42;100901.53;;;22.11;60.15
9141;BME280;46330;50.822;7.126;2022-08-03T05:56:11;100903.38;;;21.96;60.46
9141;BME280;46330;50.822;7.126;2022-08-03T05:58:43;100899.19;;;22.07;60.33
9141;BME280;46330;50.822;7.126;2022-08-03T06:01:11;100901.28;;;22.71;57.69
9141;BME280;46330;50.822;7.126;2022-08-03T06:03:39;100901.31;;;22.57;58.00
9141;BME280;46330;50.822;7.126;2022-08-03T06:06:07;100913.63;;;23.13;56.12
9141;BME280;46330;50.822;7.126;2022-08-03T06:08:35;100906.84;;;23.07;56.48
9141;BME280;46330;50.822;7.126;2022-08-03T06:11:03;100912.38;;;23.31;55.54
9141;BME280;46330;50.822;7.126;2022-08-03T06:13:33;100912.31;;;23.58;54.46
9141;BME280;46330;50.822;7.126;2022-08-03T06:16:02;100916.91;;;23.43;54.75
9141;BME280;46330;50.822;7.126;2022-08-03T06:18:30;100919.19;;;23.99;53.64
9141;BME280;46330;50.822;7.126;2022-08-03T06:20:58;100913.41;;;23.93;53.86
9141;BME280;46330;50.822;7.126;2022-08-03T06:26:25;100909.94;;;24.41;52.40
9141;BME280;46330;50.822;7.126;2022-08-03T06:28:55;100908.91;;;24.68;51.66
9141;BME280;46330;50.822;7.126;2022-08-03T06:31:24;100914.41;;;24.90;51.10
9141;BME280;46330;50.822;7.126;2022-08-03T06:34:00;100914.69;;;24.98;50.07
9141;BME280;46330;50.822;7.126;2022-08-03T06:36:49;100921.47;;;25.14;49.25
9141;BME280;46330;50.822;7.126;2022-08-03T06:39:18;100921.47;;;25.14;49.48
9141;BME280;46330;50.822;7.126;2022-08-03T06:41:50;100922.44;;;26.05;47.24
9141;BME280;46330;50.822;7.126;2022-08-03T06:44:19;100913.19;;;26.43;46.17
9141;BME280;46330;50.822;7.126;2022-08-03T06:46:47;100919.19;;;26.78;45.13
9141;BME280;46330;50.822;7.126;2022-08-03T06:49:15;100926.75;;;27.27;44.08
9141;BME280;46330;50.822;7.126;2022-08-03T06:51:43;100925.50;;;27.31;43.45
9141;BME280;46330;50.822;7.126;2022-08-03T06:54:31;100924.47;;;28.05;41.96
9141;BME280;46330;50.822;7.126;2022-08-03T06:56:59;100916.31;;;28.16;41.26
9141;BME280;46330;50.822;7.126;2022-08-03T06:59:28;100917.25;;;28.76;40.44
9141;BME280;46330;50.822;7.126;2022-08-03T07:02:16;100919.97;;;29.24;39.34
9141;BME280;46330;50.822;7.126;2022-08-03T07:04:46;100918.38;;;29.21;39.12
9141;BME280;46330;50.822;7.126;2022-08-03T07:07:14;100912.03;;;29.22;39.42
9141;BME280;46330;50.822;7.126;2022-08-03T07:09:42;100923.41;;;28.57;40.67
9141;BME280;46330;50.822;7.126;2022-08-03T07:12:25;100928.31;;;28.43;40.39
9141;BME280;46330;50.822;7.126;2022-08-03T07:14:55;100921.34;;;27.80;41.84
9141;BME280;46330;50.822;7.126;2022-08-03T07:17:28;100924.44;;;29.81;38.96
9141;BME280;46330;50.822;7.126;2022-08-03T07:19:57;100921.28;;;29.29;39.28
9141;BME280;46330;50.822;7.126;2022-08-03T07:22:25;100927.31;;;29.70;38.56
9141;BME280;46330;50.822;7.126;2022-08-03T07:24:53;100924.38;;;29.34;38.68
9141;BME280;46330;50.822;7.126;2022-08-03T07:27:21;100921.41;;;29.38;39.07
9141;BME280;46330;50.822;7.126;2022-08-03T07:29:49;100919.88;;;30.01;37.43
9141;BME280;46330;50.822;7.126;2022-08-03T07:32:18;100927.06;;;30.19;37.52
9141;BME280;46330;50.822;7.126;2022-08-03T07:34:46;100932.09;;;30.69;36.85
9141;BME280;46330;50.822;7.126;2022-08-03T07:37:14;100929.63;;;30.93;36.83
9141;BME280;46330;50.822;7.126;2022-08-03T07:39:42;100929.75;;;29.82;37.98
9141;BME280;46330;50.822;7.126;2022-08-03T07:42:10;100927.34;;;30.98;36.44
9141;BME280;46330;50.822;7.126;2022-08-03T07:44:38;100919.94;;;30.55;36.93
9141;BME280;46330;50.822;7.126;2022-08-03T07:47:05;100917.72;;;30.68;36.86
9141;BME280;46330;50.822;7.126;2022-08-03T07:49:39;100927.50;;;31.14;35.86
9141;BME280;46330;50.822;7.126;2022-08-03T07:52:07;100924.81;;;30.97;36.09
9141;BME280;46330;50.822;7.126;2022-08-03T07:54:54;100931.09;;;30.87;36.20
9141;BME280;46330;50.822;7.126;2022-08-03T07:57:22;100925.84;;;31.13;36.19
9141;BME280;46330;50.822;7.126;2022-08-03T07:59:50;100925.94;;;31.65;34.94
9141;BME280;46330;50.822;7.126;2022-08-03T08:02:37;100923.59;;;31.70;34.52
9141;BME280;46330;50.822;7.126;2022-08-03T08:05:07;100921.06;;;32.54;33.52
9141;BME280;46330;50.822;7.126;2022-08-03T08:07:36;100918.28;;;32.95;32.64
9141;BME280;46330;50.822;7.126;2022-08-03T08:10:05;100916.66;;;33.27;32.37
9141;BME280;46330;50.822;7.126;2022-08-03T08:12:33;100912.25;;;33.74;31.17
9141;BME280;46330;50.822;7.126;2022-08-03T08:15:01;100919.47;;;33.01;32.80
9141;BME280;46330;50.822;7.126;2022-08-03T08:17:29;100901.47;;;32.68;32.50
9141;BME280;46330;50.822;7.126;2022-08-03T08:19:57;100908.34;;;33.12;32.23
9141;BME280;46330;50.822;7.126;2022-08-03T08:22:26;100908.34;;;34.40;30.06
9141;BME280;46330;50.822;7.126;2022-08-03T08:24:57;100907.28;;;34.41;29.76
9141;BME280;46330;50.822;7.126;2022-08-03T08:27:27;100898.56;;;34.06;30.60
9141;BME280;46330;50.822;7.126;2022-08-03T08:30:18;100906.59;;;34.47;30.15
9141;BME280;46330;50.822;7.126;2022-08-03T08:32:47;100899.66;;;34.75;29.38
9141;BME280;46330;50.822;7.126;2022-08-03T08:35:16;100908.16;;;34.80;29.59
9141;BME280;46330;50.822;7.126;2022-08-03T08:37:45;100903.00;;;34.85;28.80
9141;BME280;46330;50.822;7.126;2022-08-03T08:40:19;100906.28;;;36.30;27.51
9141;BME280;46330;50.822;7.126;2022-08-03T08:42:47;100905.41;;;35.34;28.51
9141;BME280;46330;50.822;7.126;2022-08-03T08:45:24;100909.03;;;36.30;27.31
9141;BME280;46330;50.822;7.126;2022-08-03T08:47:54;100907.84;;;36.90;26.10
9141;BME280;46330;50.822;7.126;2022-08-03T08:50:28;100910.81;;;36.08;27.07
9141;BME280;46330;50.822;7.126;2022-08-03T08:52:59;100908.88;;;37.03;25.59
9141;BME280;46330;50.822;7.126;2022-08-03T08:55:29;100910.25;;;37.14;25.33
9141;BME280;46330;50.822;7.126;2022-08-03T08:58:20;100907.22;;;38.41;23.52
9141;BME280;46330;50.822;7.126;2022-08-03T09:00:49;100901.28;;;37.69;24.95
9141;BME280;46330;50.822;7.126;2022-08-03T09:03:17;100905.53;;;38.06;24.33
9141;BME280;46330;50.822;7.126;2022-08-03T09:05:55;100903.44;;;37.80;24.12
9141;BME280;46330;50.822;7.126;2022-08-03T09:08:24;100907.97;;;38.29;23.45
9141;BME280;46330;50.822;7.126;2022-08-03T09:10:53;100902.38;;;38.97;22.01
9141;BME280;46330;50.822;7.126;2022-08-03T09:13:20;100908.13;;;39.35;22.40
9141;BME280;46330;50.822;7.126;2022-08-03T09:16:08;100905.22;;;38.69;22.69
9141;BME280;46330;50.822;7.126;2022-08-03T09:18:37;100897.72;;;38.85;22.48
9141;BME280;46330;50.822;7.126;2022-08-03T09:21:19;100896.31;;;39.28;22.29
9141;BME280;46330;50.822;7.126;2022-08-03T09:24:05;100905.06;;;40.28;21.08
9141;BME280;46330;50.822;7.126;2022-08-03T09:26:51;100897.72;;;40.22;20.68
9141;BME280;46330;50.822;7.126;2022-08-03T09:29:20;100902.16;;;40.04;20.81
9141;BME280;46330;50.822;7.126;2022-08-03T09:31:48;100895.91;;;39.44;21.43
9141;BME280;46330;50.822;7.126;2022-08-03T09:34:17;100886.44;;;38.53;22.37
9141;BME280;46330;50.822;7.126;2022-08-03T09:36:46;100893.50;;;38.82;22.77
9141;BME280;46330;50.822;7.126;2022-08-03T09:39:17;100888.53;;;37.76;24.22
9141;BME280;46330;50.822;7.126;2022-08-03T09:42:06;100892.84;;;38.80;22.90
9141;BME280;46330;50.822;7.126;2022-08-03T09:44:35;100893.41;;;38.62;23.46
9141;BME280;46330;50.822;7.126;2022-08-03T09:47:04;100888.72;;;39.30;21.89
9141;BME280;46330;50.822;7.126;2022-08-03T09:49:32;100885.56;;;39.27;21.60
9141;BME280;46330;50.822;7.126;2022-08-03T09:52:01;100901.44;;;40.41;20.83
9141;BME280;46330;50.822;7.126;2022-08-03T09:55:00;100897.56;;;39.65;21.80
9141;BME280;46330;50.822;7.126;2022-08-03T09:57:28;100894.84;;;39.71;21.61
9141;BME280;46330;50.822;7.126;2022-08-03T10:00:09;100888.88;;;36.60;24.63
9141;BME280;46330;50.822;7.126;2022-08-03T10:02:38;100894.66;;;38.60;22.16
9141;BME280;46330;50.822;7.126;2022-08-03T10:05:09;100892.16;;;37.90;23.61
9141;BME280;46330;50.822;7.126;2022-08-03T10:07:46;100885.81;;;39.51;22.18
9141;BME280;46330;50.822;7.126;2022-08-03T10:10:16;100893.97;;;39.91;20.97
9141;BME280;46330;50.822;7.126;2022-08-03T10:12:57;100885.25;;;38.76;21.99
9141;BME280;46330;50.822;7.126;2022-08-03T10:15:26;100885.56;;;39.20;20.53
9141;BME280;46330;50.822;7.126;2022-08-03T10:18:14;100876.50;;;39.39;20.91
9141;BME280;46330;50.822;7.126;2022-08-03T10:20:47;100884.91;;;39.18;21.53
9141;BME280;46330;50.822;7.126;2022-08-03T10:23:17;100883.28;;;40.40;20.01
9141;BME280;46330;50.822;7.126;2022-08-03T10:25:51;100878.81;;;40.46;20.48
9141;BME280;46330;50.822;7.126;2022-08-03T10:28:21;100877.19;;;40.76;19.73
9141;BME280;46330;50.822;7.126;2022-08-03T10:30:51;100878.13;;;40.63;20.33
9141;BME280;46330;50.822;7.126;2022-08-03T10:33:21;100868.47;;;39.05;21.40
9141;BME280;46330;50.822;7.126;2022-08-03T10:36:12;100861.56;;;40.76;20.69
9141;BME280;46330;50.822;7.126;2022-08-03T10:38:44;100856.88;;;39.95;21.21
9141;BME280;46330;50.822;7.126;2022-08-03T10:41:20;100856.47;;;38.80;21.78
9141;BME280;46330;50.822;7.126;2022-08-03T10:43:50;100850.47;;;40.14;21.47
9141;BME280;46330;50.822;7.126;2022-08-03T10:46:20;100844.91;;;39.30;22.00
9141;BME280;46330;50.822;7.126;2022-08-03T10:48:49;100849.78;;;40.32;20.05
9141;BME280;46330;50.822;7.126;2022-08-03T10:51:19;100844.16;;;40.07;20.65
9141;BME280;46330;50.822;7.126;2022-08-03T10:53:47;100841.50;;;39.81;21.43
9141;BME280;46330;50.822;7.126;2022-08-03T10:56:49;100845.69;;;40.47;20.82
9141;BME280;46330;50.822;7.126;2022-08-03T10:59:57;100836.47;;;40.73;20.26
9141;BME280;46330;50.822;7.126;2022-08-03T11:03:00;100829.94;;;40.29;20.91
9141;BME280;46330;50.822;7.126;2022-08-03T11:05:29;100829.03;;;39.98;21.40
9141;BME280;46330;50.822;7.126;2022-08-03T11:08:16;100824.97;;;40.13;20.79
9141;BME280;46330;50.822;7.126;2022-08-03T11:10:44;100821.75;;;40.92;19.69
9141;BME280;46330;50.822;7.126;2022-08-03T11:13:16;100820.94;;;39.26;21.32
9141;BME280;46330;50.822;7.126;2022-08-03T11:15:47;100817.19;;;38.46;22.58
9141;BME280;46330;50.822;7.126;2022-08-03T11:18:16;100818.03;;;40.49;21.06
9141;BME280;46330;50.822;7.126;2022-08-03T11:20:46;100810.31;;;40.33;20.52
9141;BME280;46330;50.822;7.126;2022-08-03T11:23:15;100819.59;;;39.61;21.10
9141;BME280;46330;50.822;7.126;2022-08-03T11:26:11;100820.09;;;39.25;21.23
9141;BME280;46330;50.822;7.126;2022-08-03T11:28:41;100805.09;;;40.24;20.30
9141;BME280;46330;50.822;7.126;2022-08-03T11:31:43;100811.16;;;40.33;20.47
9141;BME280;46330;50.822;7.126;2022-08-03T11:34:16;100809.22;;;39.83;21.03
9141;BME280;46330;50.822;7.126;2022-08-03T11:37:22;100812.03;;;39.69;20.97
9141;BME280;46330;50.822;7.126;2022-08-03T11:39:57;100818.59;;;40.26;20.48
9141;BME280;46330;50.822;7.126;2022-08-03T11:42:40;100806.22;;;40.79;20.29
9141;BME280;46330;50.822;7.126;2022-08-03T11:45:13;100808.09;;;40.54;20.05
9141;BME280;46330;50.822;7.126;2022-08-03T11:47:41;100801.44;;;40.75;19.60
9141;BME280;46330;50.822;7.126;2022-08-03T11:50:17;100802.72;;;40.35;20.31
9141;BME280;46330;50.822;7.126;2022-08-03T11:52:47;100809.13;;;40.09;20.69
9141;BME280;46330;50.822;7.126;2022-08-03T11:55:17;100796.06;;;40.55;19.95
9141;BME280;46330;50.822;7.126;2022-08-03T11:57:47;100791.81;;;40.91;19.42
9141;BME280;46330;50.822;7.126;2022-08-03T12:00:36;100792.38;;;40.37;20.24
9141;BME280;46330;50.822;7.126;2022-08-03T12:03:06;100799.91;;;41.35;18.96
9141;BME280;46330;50.822;7.126;2022-08-03T12:05:46;100800.16;;;41.52;18.87
9141;BME280;46330;50.822;7.126;2022-08-03T12:08:29;100791.50;;;41.05;18.64
9141;BME280;46330;50.822;7.126;2022-08-03T12:11:00;100790.72;;;40.92;19.64
9141;BME280;46330;50.822;7.126;2022-08-03T12:13:35;100786.06;;;40.99;19.32
9141;BME280;46330;50.822;7.126;2022-08-03T12:16:25;100778.09;;;40.91;19.39
9141;BME280;46330;50.822;7.126;2022-08-03T12:18:55;100788.56;;;40.75;19.29
9141;BME280;46330;50.822;7.126;2022-08-03T12:21:24;100782.28;;;40.93;19.41
9141;BME280;46330;50.822;7.126;2022-08-03T12:23:55;100780.81;;;40.91;19.48
9141;BME280;46330;50.822;7.126;2022-08-03T12:26:24;100776.25;;;40.09;20.00
9141;BME280;46330;50.822;7.126;2022-08-03T12:28:53;100779.88;;;40.78;19.57
9141;BME280;46330;50.822;7.126;2022-08-03T12:31:21;100781.75;;;41.70;18.62
9141;BME280;46330;50.822;7.126;2022-08-03T12:33:58;100782.81;;;40.52;19.88
9141;BME280;46330;50.822;7.126;2022-08-03T12:36:28;100777.84;;;41.17;19.43
9141;BME280;46330;50.822;7.126;2022-08-03T12:38:57;100771.38;;;41.36;19.48
9141;BME280;46330;50.822;7.126;2022-08-03T12:41:30;100773.00;;;41.62;18.98
9141;BME280;46330;50.822;7.126;2022-08-03T12:44:00;100770.75;;;40.85;18.97
9141;BME280;46330;50.822;7.126;2022-08-03T12:46:31;100766.31;;;41.69;19.05
9141;BME280;46330;50.822;7.126;2022-08-03T12:49:03;100769.16;;;40.70;18.94
9141;BME280;46330;50.822;7.126;2022-08-03T12:51:34;100769.47;;;41.55;18.15
9141;BME280;46330;50.822;7.126;2022-08-03T12:54:03;100762.66;;;41.39;18.35
9141;BME280;46330;50.822;7.126;2022-08-03T12:56:32;100767.19;;;41.27;18.08
9141;BME280;46330;50.822;7.126;2022-08-03T12:59:00;100771.25;;;42.63;16.73
9141;BME280;46330;50.822;7.126;2022-08-03T13:01:35;100771.03;;;42.76;16.90
9141;BME280;46330;50.822;7.126;2022-08-03T13:04:29;100759.00;;;42.18;17.62
9141;BME280;46330;50.822;7.126;2022-08-03T13:07:00;100759.97;;;40.83;19.06
9141;BME280;46330;50.822;7.126;2022-08-03T13:09:29;100757.41;;;40.63;19.10
9141;BME280;46330;50.822;7.126;2022-08-03T13:12:06;100757.41;;;39.81;20.14
9141;BME280;46330;50.822;7.126;2022-08-03T13:14:34;100752.03;;;38.63;20.67
9141;BME280;46330;50.822;7.126;2022-08-03T13:17:03;100754.97;;;38.74;20.85
9141;BME280;46330;50.822;7.126;2022-08-03T13:19:33;100753.31;;;38.80;20.91
9141;BME280;46330;50.822;7.126;2022-08-03T13:22:09;100756.84;;;38.48;21.62
9141;BME280;46330;50.822;7.126;2022-08-03T13:24:38;100752.91;;;38.83;21.00
9141;BME280;46330;50.822;7.126;2022-08-03T13:27:06;100752.03;;;39.22;20.56
9141;BME280;46330;50.822;7.126;2022-08-03T13:29:55;100756.25;;;39.31;20.64
9141;BME280;46330;50.822;7.126;2022-08-03T13:32:23;100751.81;;;39.43;20.96
9141;BME280;46330;50.822;7.126;2022-08-03T13:34:52;100743.22;;;39.97;19.84